sensor_id;sensor_type;location;lat;lon;timestamp;temperature;humidity
17154;DHT22;8692;52.164;7.558;2024-01-27T00:01:27;4.10;99.90
17154;DHT22;8692;52.164;7.558;2024-01-27T00:03:55;4.10;99.90
17154;DHT22;8692;52.164;7.558;2024-01-27T00:06:25;4.10;99.90
17154;DHT22;8692;52.164;7.558;2024-01-27T00:08:53;4.00;99.90
17154;DHT22;8692;52.164;7.558;2024-01-27T00:11:21;4.10;99.90
17154;DHT22;8692;52.164;7.558;2024-01-27T00:13:53;4.00;99.90
17154;DHT22;8692;52.164;7.558;2024-01-27T00:16:21;4.00;99.90
17154;DHT22;8692;52.164;7.558;2024-01-27T00:18:49;4.00;99.90
17154;DHT22;8692;52.164;7.558;2024-01-27T00:21:17;4.00;99.90
17154;DHT22;8692;52.164;7.558;2024-01-27T00:23:47;4.00;99.90
17154;DHT22;8692;52.164;7.558;2024-01-27T00:26:15;4.00;99.90
17154;DHT22;8692;52.164;7.558;2024-01-27T00:28:44;4.00;99.90
17154;DHT22;8692;52.164;7.558;2024-01-27T00:31:11;3.90;99.90
17154;DHT22;8692;52.164;7.558;2024-01-27T00:33:39;3.90;99.90
17154;DHT22;8692;52.164;7.558;2024-01-27T00:36:08;3.90;99.90
17154;DHT22;8692;52.164;7.558;2024-01-27T00:38:36;3.90;99.90
17154;DHT22;8692;52.164;7.558;2024-01-27T00:41:06;3.90;99.90
17154;DHT22;8692;52.164;7.558;2024-01-27T00:43:36;3.80;99.90
17154;DHT22;8692;52.164;7.558;2024-01-27T00:46:04;3.80;99.90
17154;DHT22;8692;52.164;7.558;2024-01-27T00:48:32;3.80;99.90
17154;DHT22;8692;52.164;7.558;2024-01-27T00:51:00;3.80;99.90
17154;DHT22;8692;52.164;7.558;2024-01-27T00:53:28;3.80;99.90
17154;DHT22;8692;52.164;7.558;2024-01-27T00:55:55;3.80;99.90
17154;DHT22;8692;52.164;7.558;2024-01-27T00:58:25;3.70;99.90
17154;DHT22;8692;52.164;7.558;2024-01-27T01:00:52;3.70;99.90
17154;DHT22;8692;52.164;7.558;2024-01-27T01:03:20;3.70;99.90
17154;DHT22;8692;52.164;7.558;2024-01-27T01:05:49;3.70;99.90
17154;DHT22;8692;52.164;7.558;2024-01-27T01:08:17;3.70;99.90
17154;DHT22;8692;52.164;7.558;2024-01-27T01:10:45;3.70;99.90
17154;DHT22;8692;52.164;7.558;2024-01-27T01:13:13;3.70;99.90
17154;DHT22;8692;52.164;7.558;2024-01-27T01:15:42;3.60;99.90
17154;DHT22;8692;52.164;7.558;2024-01-27T01:18:10;3.60;99.90
17154;DHT22;8692;52.164;7.558;2024-01-27T01:20:38;3.60;99.90
17154;DHT22;8692;52.164;7.558;2024-01-27T01:23:07;3.60;99.90
17154;DHT22;8692;52.164;7.558;2024-01-27T01:25:35;3.60;99.90
17154;DHT22;8692;52.164;7.558;2024-01-27T01:28:03;3.60;99.90
17154;DHT22;8692;52.164;7.558;2024-01-27T01:30:31;3.50;99.90
17154;DHT22;8692;52.164;7.558;2024-01-27T01:33:01;3.50;99.90
17154;DHT22;8692;52.164;7.558;2024-01-27T01:35:29;3.50;99.90
17154;DHT22;8692;52.164;7.558;2024-01-27T01:37:57;3.50;99.90
17154;DHT22;8692;52.164;7.558;2024-01-27T01:40:25;3.50;99.90
17154;DHT22;8692;52.164;7.558;2024-01-27T01:42:53;3.50;99.90
17154;DHT22;8692;52.164;7.558;2024-01-27T01:45:21;3.50;99.90
17154;DHT22;8692;52.164;7.558;2024-01-27T01:47:49;3.50;99.90
17154;DHT22;8692;52.164;7.558;2024-01-27T01:50:19;3.40;99.90
17154;DHT22;8692;52.164;7.558;2024-01-27T01:52:48;3.40;99.90
17154;DHT22;8692;52.164;7.558;2024-01-27T01:55:17;3.40;99.90
17154;DHT22;8692;52.164;7.558;2024-01-27T01:57:45;3.40;99.90
17154;DHT22;8692;52.164;7.558;2024-01-27T02:00:14;3.40;99.90
17154;DHT22;8692;52.164;7.558;2024-01-27T02:02:43;3.30;99.90
17154;DHT22;8692;52.164;7.558;2024-01-27T02:05:12;3.30;99.90
17154;DHT22;8692;52.164;7.558;2024-01-27T02:07:42;3.30;99.90
17154;DHT22;8692;52.164;7.558;2024-01-27T02:10:13;3.20;99.90
17154;DHT22;8692;52.164;7.558;2024-01-27T02:12:42;3.20;99.90
17154;DHT22;8692;52.164;7.558;2024-01-27T02:15:11;3.20;99.90
17154;DHT22;8692;52.164;7.558;2024-01-27T02:17:40;3.20;99.90
17154;DHT22;8692;52.164;7.558;2024-01-27T02:20:10;3.20;99.90
17154;DHT22;8692;52.164;7.558;2024-01-27T02:22:38;3.20;99.90
17154;DHT22;8692;52.164;7.558;2024-01-27T02:25:08;3.10;99.90
17154;DHT22;8692;52.164;7.558;2024-01-27T02:27:36;3.10;99.90
17154;DHT22;8692;52.164;7.558;2024-01-27T02:30:05;3.10;99.90
17154;DHT22;8692;52.164;7.558;2024-01-27T02:32:33;3.00;99.90
17154;DHT22;8692;52.164;7.558;2024-01-27T02:35:01;3.00;99.90
17154;DHT22;8692;52.164;7.558;2024-01-27T02:37:29;3.00;99.90
17154;DHT22;8692;52.164;7.558;2024-01-27T02:39:57;3.00;99.90
17154;DHT22;8692;52.164;7.558;2024-01-27T02:42:26;2.90;99.90
17154;DHT22;8692;52.164;7.558;2024-01-27T02:44:54;2.90;99.90
17154;DHT22;8692;52.164;7.558;2024-01-27T02:47:22;2.90;99.90
17154;DHT22;8692;52.164;7.558;2024-01-27T02:49:50;2.90;99.90
17154;DHT22;8692;52.164;7.558;2024-01-27T02:52:19;2.90;99.90
17154;DHT22;8692;52.164;7.558;2024-01-27T02:54:47;2.90;99.90
17154;DHT22;8692;52.164;7.558;2024-01-27T02:57:15;2.80;99.90
17154;DHT22;8692;52.164;7.558;2024-01-27T02:59:46;2.90;99.90
17154;DHT22;8692;52.164;7.558;2024-01-27T03:02:14;2.80;99.90
17154;DHT22;8692;52.164;7.558;2024-01-27T03:04:42;2.80;99.90
17154;DHT22;8692;52.164;7.558;2024-01-27T03:07:10;2.80;99.90
17154;DHT22;8692;52.164;7.558;2024-01-27T03:09:38;2.80;99.90
17154;DHT22;8692;52.164;7.558;2024-01-27T03:12:07;2.80;99.90
17154;DHT22;8692;52.164;7.558;2024-01-27T03:14:35;2.80;99.90
17154;DHT22;8692;52.164;7.558;2024-01-27T03:17:04;2.80;99.90
17154;DHT22;8692;52.164;7.558;2024-01-27T03:19:33;2.70;99.90
17154;DHT22;8692;52.164;7.558;2024-01-27T03:22:02;2.70;99.90
17154;DHT22;8692;52.164;7.558;2024-01-27T03:24:30;2.70;99.90
17154;DHT22;8692;52.164;7.558;2024-01-27T03:26:58;2.70;99.90
17154;DHT22;8692;52.164;7.558;2024-01-27T03:29:26;2.70;99.90
17154;DHT22;8692;52.164;7.558;2024-01-27T03:31:54;2.70;99.90
17154;DHT22;8692;52.164;7.558;2024-01-27T03:34:24;2.70;99.90
17154;DHT22;8692;52.164;7.558;2024-01-27T03:36:54;2.70;99.90
17154;DHT22;8692;52.164;7.558;2024-01-27T03:39:22;2.70;99.90
17154;DHT22;8692;52.164;7.558;2024-01-27T03:41:50;2.70;99.90
17154;DHT22;8692;52.164;7.558;2024-01-27T03:44:18;2.70;99.90
17154;DHT22;8692;52.164;7.558;2024-01-27T03:46:46;2.70;99.90
17154;DHT22;8692;52.164;7.558;2024-01-27T03:49:15;2.70;99.90
17154;DHT22;8692;52.164;7.558;2024-01-27T03:51:44;2.70;99.90
17154;DHT22;8692;52.164;7.558;2024-01-27T03:54:12;2.70;99.90
17154;DHT22;8692;52.164;7.558;2024-01-27T03:56:41;2.60;99.90
17154;DHT22;8692;52.164;7.558;2024-01-27T03:59:08;2.60;99.90
17154;DHT22;8692;52.164;7.558;2024-01-27T04:01:38;2.60;99.90
17154;DHT22;8692;52.164;7.558;2024-01-27T04:04:06;2.60;99.90
17154;DHT22;8692;52.164;7.558;2024-01-27T04:06:37;2.60;99.90
17154;DHT22;8692;52.164;7.558;2024-01-27T04:09:07;2.60;99.90
17154;DHT22;8692;52.164;7.558;2024-01-27T04:11:35;2.60;99.90
17154;DHT22;8692;52.164;7.558;2024-01-27T04:14:04;2.60;99.90
17154;DHT22;8692;52.164;7.558;2024-01-27T04:16:32;2.60;99.90
17154;DHT22;8692;52.164;7.558;2024-01-27T04:19:00;2.60;99.90
17154;DHT22;8692;52.164;7.558;2024-01-27T04:21:28;2.60;99.90
17154;DHT22;8692;52.164;7.558;2024-01-27T04:23:56;2.60;99.90
17154;DHT22;8692;52.164;7.558;2024-01-27T04:26:26;2.50;99.90
17154;DHT22;8692;52.164;7.558;2024-01-27T04:28:54;2.50;99.90
17154;DHT22;8692;52.164;7.558;2024-01-27T04:31:22;2.50;99.90
17154;DHT22;8692;52.164;7.558;2024-01-27T04:33:50;2.50;99.90
17154;DHT22;8692;52.164;7.558;2024-01-27T04:36:25;2.50;99.90
17154;DHT22;8692;52.164;7.558;2024-01-27T04:38:54;2.50;99.90
17154;DHT22;8692;52.164;7.558;2024-01-27T04:41:22;2.50;99.90
17154;DHT22;8692;52.164;7.558;2024-01-27T04:43:51;2.50;99.90
17154;DHT22;8692;52.164;7.558;2024-01-27T04:46:20;2.50;99.90
17154;DHT22;8692;52.164;7.558;2024-01-27T04:48:47;2.40;99.90
17154;DHT22;8692;52.164;7.558;2024-01-27T04:51:16;2.40;99.90
17154;DHT22;8692;52.164;7.558;2024-01-27T04:53:44;2.40;99.90
17154;DHT22;8692;52.164;7.558;2024-01-27T04:56:12;2.30;99.90
17154;DHT22;8692;52.164;7.558;2024-01-27T04:58:40;2.30;99.90
17154;DHT22;8692;52.164;7.558;2024-01-27T05:01:09;2.30;99.90
17154;DHT22;8692;52.164;7.558;2024-01-27T05:03:37;2.20;99.90
17154;DHT22;8692;52.164;7.558;2024-01-27T05:06:07;2.20;99.90
17154;DHT22;8692;52.164;7.558;2024-01-27T05:08:36;2.20;99.90
17154;DHT22;8692;52.164;7.558;2024-01-27T05:11:04;2.20;99.90
17154;DHT22;8692;52.164;7.558;2024-01-27T05:13:32;2.20;99.90
17154;DHT22;8692;52.164;7.558;2024-01-27T05:16:00;2.10;99.90
17154;DHT22;8692;52.164;7.558;2024-01-27T05:18:29;2.10;99.90
17154;DHT22;8692;52.164;7.558;2024-01-27T05:20:57;2.10;99.90
17154;DHT22;8692;52.164;7.558;2024-01-27T05:23:25;2.10;99.90
17154;DHT22;8692;52.164;7.558;2024-01-27T05:25:53;2.10;99.90
17154;DHT22;8692;52.164;7.558;2024-01-27T05:28:21;2.10;99.90
17154;DHT22;8692;52.164;7.558;2024-01-27T05:30:49;2.00;99.90
17154;DHT22;8692;52.164;7.558;2024-01-27T05:33:17;2.00;99.90
17154;DHT22;8692;52.164;7.558;2024-01-27T05:35:47;2.00;99.90
17154;DHT22;8692;52.164;7.558;2024-01-27T05:38:15;2.00;99.90
17154;DHT22;8692;52.164;7.558;2024-01-27T05:40:43;2.00;99.90
17154;DHT22;8692;52.164;7.558;2024-01-27T05:43:12;2.00;99.90
17154;DHT22;8692;52.164;7.558;2024-01-27T05:45:39;2.00;99.90
17154;DHT22;8692;52.164;7.558;2024-01-27T05:48:07;2.00;99.90
17154;DHT22;8692;52.164;7.558;2024-01-27T05:50:36;2.00;99.90
17154;DHT22;8692;52.164;7.558;2024-01-27T05:53:05;2.00;99.90
17154;DHT22;8692;52.164;7.558;2024-01-27T05:55:33;1.90;99.90
17154;DHT22;8692;52.164;7.558;2024-01-27T05:58:01;1.90;99.90
17154;DHT22;8692;52.164;7.558;2024-01-27T06:00:29;2.00;99.90
17154;DHT22;8692;52.164;7.558;2024-01-27T06:02:57;1.90;99.90
17154;DHT22;8692;52.164;7.558;2024-01-27T06:05:25;1.90;99.90
17154;DHT22;8692;52.164;7.558;2024-01-27T06:07:53;1.90;99.90
17154;DHT22;8692;52.164;7.558;2024-01-27T06:10:22;1.90;99.90
17154;DHT22;8692;52.164;7.558;2024-01-27T06:12:51;1.90;99.90
17154;DHT22;8692;52.164;7.558;2024-01-27T06:15:19;1.90;99.90
17154;DHT22;8692;52.164;7.558;2024-01-27T06:17:47;1.90;99.90
17154;DHT22;8692;52.164;7.558;2024-01-27T06:20:15;1.90;99.90
17154;DHT22;8692;52.164;7.558;2024-01-27T06:22:45;1.90;99.90
17154;DHT22;8692;52.164;7.558;2024-01-27T06:25:14;1.90;99.90
17154;DHT22;8692;52.164;7.558;2024-01-27T06:27:44;1.90;99.90
17154;DHT22;8692;52.164;7.558;2024-01-27T06:30:13;1.90;99.90
17154;DHT22;8692;52.164;7.558;2024-01-27T06:32:42;1.90;99.90
17154;DHT22;8692;52.164;7.558;2024-01-27T06:35:10;1.90;99.90
17154;DHT22;8692;52.164;7.558;2024-01-27T06:37:38;1.90;99.90
17154;DHT22;8692;52.164;7.558;2024-01-27T06:40:07;1.80;99.90
17154;DHT22;8692;52.164;7.558;2024-01-27T06:42:36;1.90;99.90
17154;DHT22;8692;52.164;7.558;2024-01-27T06:45:06;1.90;99.90
17154;DHT22;8692;52.164;7.558;2024-01-27T06:47:34;1.90;99.90
17154;DHT22;8692;52.164;7.558;2024-01-27T06:50:02;1.90;99.90
17154;DHT22;8692;52.164;7.558;2024-01-27T06:52:30;1.80;99.90
17154;DHT22;8692;52.164;7.558;2024-01-27T06:54:58;1.80;99.90
17154;DHT22;8692;52.164;7.558;2024-01-27T06:57:26;1.90;99.90
17154;DHT22;8692;52.164;7.558;2024-01-27T06:59:55;1.90;99.90
17154;DHT22;8692;52.164;7.558;2024-01-27T07:02:25;1.90;99.90
17154;DHT22;8692;52.164;7.558;2024-01-27T07:04:54;1.80;99.90
17154;DHT22;8692;52.164;7.558;2024-01-27T07:07:24;1.90;99.90
17154;DHT22;8692;52.164;7.558;2024-01-27T07:09:54;1.90;99.90
17154;DHT22;8692;52.164;7.558;2024-01-27T07:12:22;1.80;99.90
17154;DHT22;8692;52.164;7.558;2024-01-27T07:14:50;1.90;99.90
17154;DHT22;8692;52.164;7.558;2024-01-27T07:17:24;1.80;99.90
17154;DHT22;8692;52.164;7.558;2024-01-27T07:19:52;1.80;99.90
17154;DHT22;8692;52.164;7.558;2024-01-27T07:22:21;1.80;99.90
17154;DHT22;8692;52.164;7.558;2024-01-27T07:24:50;1.80;99.90
17154;DHT22;8692;52.164;7.558;2024-01-27T07:27:18;1.80;99.90
17154;DHT22;8692;52.164;7.558;2024-01-27T07:29:47;1.80;99.90
17154;DHT22;8692;52.164;7.558;2024-01-27T07:32:15;1.80;99.90
17154;DHT22;8692;52.164;7.558;2024-01-27T07:34:44;1.80;99.90
17154;DHT22;8692;52.164;7.558;2024-01-27T07:37:12;1.80;99.90
17154;DHT22;8692;52.164;7.558;2024-01-27T07:39:40;1.80;99.90
17154;DHT22;8692;52.164;7.558;2024-01-27T07:42:08;1.80;99.90
17154;DHT22;8692;52.164;7.558;2024-01-27T07:44:36;1.80;99.90
17154;DHT22;8692;52.164;7.558;2024-01-27T07:47:04;1.80;99.90
17154;DHT22;8692;52.164;7.558;2024-01-27T07:49:32;1.70;99.90
17154;DHT22;8692;52.164;7.558;2024-01-27T07:52:02;1.80;99.90
17154;DHT22;8692;52.164;7.558;2024-01-27T07:54:30;1.80;99.90
17154;DHT22;8692;52.164;7.558;2024-01-27T07:57:00;1.80;99.90
17154;DHT22;8692;52.164;7.558;2024-01-27T07:59:28;1.80;99.90
17154;DHT22;8692;52.164;7.558;2024-01-27T08:01:55;1.80;99.90
17154;DHT22;8692;52.164;7.558;2024-01-27T08:04:23;1.80;99.90
17154;DHT22;8692;52.164;7.558;2024-01-27T08:06:52;1.80;99.90
17154;DHT22;8692;52.164;7.558;2024-01-27T08:09:22;1.80;99.90
17154;DHT22;8692;52.164;7.558;2024-01-27T08:11:50;1.80;99.90
17154;DHT22;8692;52.164;7.558;2024-01-27T08:14:20;1.80;99.90
17154;DHT22;8692;52.164;7.558;2024-01-27T08:16:49;1.80;99.90
17154;DHT22;8692;52.164;7.558;2024-01-27T08:19:17;1.90;99.90
17154;DHT22;8692;52.164;7.558;2024-01-27T08:21:47;1.90;99.90
17154;DHT22;8692;52.164;7.558;2024-01-27T08:24:16;1.90;99.90
17154;DHT22;8692;52.164;7.558;2024-01-27T08:26:45;1.90;99.90
17154;DHT22;8692;52.164;7.558;2024-01-27T08:29:15;2.00;99.90
17154;DHT22;8692;52.164;7.558;2024-01-27T08:31:42;2.00;99.90
17154;DHT22;8692;52.164;7.558;2024-01-27T08:34:11;2.00;99.90
17154;DHT22;8692;52.164;7.558;2024-01-27T08:36:40;2.10;99.90
17154;DHT22;8692;52.164;7.558;2024-01-27T08:39:08;2.10;99.90
17154;DHT22;8692;52.164;7.558;2024-01-27T08:41:39;2.10;99.90
17154;DHT22;8692;52.164;7.558;2024-01-27T08:44:08;2.20;99.90
17154;DHT22;8692;52.164;7.558;2024-01-27T08:46:36;2.20;99.90
17154;DHT22;8692;52.164;7.558;2024-01-27T08:49:04;2.30;99.90
17154;DHT22;8692;52.164;7.558;2024-01-27T08:51:32;2.40;99.90
17154;DHT22;8692;52.164;7.558;2024-01-27T08:54:01;2.40;99.90
17154;DHT22;8692;52.164;7.558;2024-01-27T08:56:30;2.50;99.90
17154;DHT22;8692;52.164;7.558;2024-01-27T08:58:58;2.50;99.90
17154;DHT22;8692;52.164;7.558;2024-01-27T09:01:27;2.60;99.90
17154;DHT22;8692;52.164;7.558;2024-01-27T09:03:55;2.60;99.90
17154;DHT22;8692;52.164;7.558;2024-01-27T09:06:23;2.70;99.90
17154;DHT22;8692;52.164;7.558;2024-01-27T09:08:57;2.80;99.90
17154;DHT22;8692;52.164;7.558;2024-01-27T09:11:25;2.80;99.90
17154;DHT22;8692;52.164;7.558;2024-01-27T09:13:54;2.90;99.90
17154;DHT22;8692;52.164;7.558;2024-01-27T09:16:22;2.90;99.90
17154;DHT22;8692;52.164;7.558;2024-01-27T09:18:51;3.00;99.90
17154;DHT22;8692;52.164;7.558;2024-01-27T09:21:20;3.10;99.90
17154;DHT22;8692;52.164;7.558;2024-01-27T09:23:55;3.10;99.90
17154;DHT22;8692;52.164;7.558;2024-01-27T09:26:23;3.20;99.90
17154;DHT22;8692;52.164;7.558;2024-01-27T09:28:51;3.20;99.90
17154;DHT22;8692;52.164;7.558;2024-01-27T09:31:21;3.30;99.90
17154;DHT22;8692;52.164;7.558;2024-01-27T09:33:51;3.40;99.90
17154;DHT22;8692;52.164;7.558;2024-01-27T09:36:20;3.40;99.90
17154;DHT22;8692;52.164;7.558;2024-01-27T09:38:48;3.40;99.90
17154;DHT22;8692;52.164;7.558;2024-01-27T09:41:17;3.50;99.90
17154;DHT22;8692;52.164;7.558;2024-01-27T09:43:46;3.60;99.90
17154;DHT22;8692;52.164;7.558;2024-01-27T09:46:14;3.60;99.90
17154;DHT22;8692;52.164;7.558;2024-01-27T09:48:43;3.70;99.90
17154;DHT22;8692;52.164;7.558;2024-01-27T09:51:13;3.70;99.90
17154;DHT22;8692;52.164;7.558;2024-01-27T09:53:42;3.80;99.90
17154;DHT22;8692;52.164;7.558;2024-01-27T09:56:11;3.90;99.90
17154;DHT22;8692;52.164;7.558;2024-01-27T09:58:45;3.90;99.90
17154;DHT22;8692;52.164;7.558;2024-01-27T10:01:16;4.00;99.90
17154;DHT22;8692;52.164;7.558;2024-01-27T10:03:46;4.10;99.90
17154;DHT22;8692;52.164;7.558;2024-01-27T10:06:16;4.20;99.90
17154;DHT22;8692;52.164;7.558;2024-01-27T10:08:52;4.20;99.90
17154;DHT22;8692;52.164;7.558;2024-01-27T10:11:21;4.30;99.90
17154;DHT22;8692;52.164;7.558;2024-01-27T10:13:54;4.40;99.90
17154;DHT22;8692;52.164;7.558;2024-01-27T10:16:26;4.50;99.90
17154;DHT22;8692;52.164;7.558;2024-01-27T10:19:00;4.50;99.90
17154;DHT22;8692;52.164;7.558;2024-01-27T10:21:30;4.60;99.90
17154;DHT22;8692;52.164;7.558;2024-01-27T10:24:00;4.70;99.90
17154;DHT22;8692;52.164;7.558;2024-01-27T10:26:30;4.70;99.90
17154;DHT22;8692;52.164;7.558;2024-01-27T10:28:59;4.80;99.90
17154;DHT22;8692;52.164;7.558;2024-01-27T10:31:28;4.90;99.90
17154;DHT22;8692;52.164;7.558;2024-01-27T10:33:57;4.90;99.90
17154;DHT22;8692;52.164;7.558;2024-01-27T10:36:39;5.00;99.90
17154;DHT22;8692;52.164;7.558;2024-01-27T10:39:18;5.10;99.90
17154;DHT22;8692;52.164;7.558;2024-01-27T10:41:49;5.20;99.90
17154;DHT22;8692;52.164;7.558;2024-01-27T10:44:18;5.20;99.90
17154;DHT22;8692;52.164;7.558;2024-01-27T10:46:48;5.30;99.90
17154;DHT22;8692;52.164;7.558;2024-01-27T10:49:17;5.40;99.90
17154;DHT22;8692;52.164;7.558;2024-01-27T10:51:53;5.40;99.90
17154;DHT22;8692;52.164;7.558;2024-01-27T10:54:24;5.50;99.90
17154;DHT22;8692;52.164;7.558;2024-01-27T10:56:54;5.50;99.90
17154;DHT22;8692;52.164;7.558;2024-01-27T10:59:26;5.60;99.90
17154;DHT22;8692;52.164;7.558;2024-01-27T11:01:55;5.70;99.90
17154;DHT22;8692;52.164;7.558;2024-01-27T11:04:24;5.80;99.90
17154;DHT22;8692;52.164;7.558;2024-01-27T11:06:55;5.80;99.90
17154;DHT22;8692;52.164;7.558;2024-01-27T11:09:24;5.90;99.90
17154;DHT22;8692;52.164;7.558;2024-01-27T11:11:53;6.00;99.90
17154;DHT22;8692;52.164;7.558;2024-01-27T11:14:21;6.10;99.90
17154;DHT22;8692;52.164;7.558;2024-01-27T11:16:54;6.10;99.90
17154;DHT22;8692;52.164;7.558;2024-01-27T11:19:23;6.20;99.90
17154;DHT22;8692;52.164;7.558;2024-01-27T11:22:01;6.30;99.90
17154;DHT22;8692;52.164;7.558;2024-01-27T11:24:29;6.40;99.90
17154;DHT22;8692;52.164;7.558;2024-01-27T11:27:01;6.40;99.90
17154;DHT22;8692;52.164;7.558;2024-01-27T11:29:29;6.50;99.90
17154;DHT22;8692;52.164;7.558;2024-01-27T11:32:00;6.50;99.90
17154;DHT22;8692;52.164;7.558;2024-01-27T11:34:41;6.60;99.90
17154;DHT22;8692;52.164;7.558;2024-01-27T11:37:15;6.70;99.90
17154;DHT22;8692;52.164;7.558;2024-01-27T11:39:43;6.80;99.90
17154;DHT22;8692;52.164;7.558;2024-01-27T11:42:13;6.80;99.90
17154;DHT22;8692;52.164;7.558;2024-01-27T11:44:42;6.90;99.90
17154;DHT22;8692;52.164;7.558;2024-01-27T11:47:14;7.00;99.90
17154;DHT22;8692;52.164;7.558;2024-01-27T11:49:43;7.00;99.90
17154;DHT22;8692;52.164;7.558;2024-01-27T11:52:12;7.10;99.90
17154;DHT22;8692;52.164;7.558;2024-01-27T11:54:41;7.20;99.90
17154;DHT22;8692;52.164;7.558;2024-01-27T11:57:09;7.20;99.90
17154;DHT22;8692;52.164;7.558;2024-01-27T11:59:37;7.30;99.90
17154;DHT22;8692;52.164;7.558;2024-01-27T12:02:05;7.30;99.90
17154;DHT22;8692;52.164;7.558;2024-01-27T12:04:34;7.40;99.90
17154;DHT22;8692;52.164;7.558;2024-01-27T12:07:02;7.40;99.90
17154;DHT22;8692;52.164;7.558;2024-01-27T12:09:31;7.50;99.90
17154;DHT22;8692;52.164;7.558;2024-01-27T12:12:00;7.50;99.90
17154;DHT22;8692;52.164;7.558;2024-01-27T12:14:38;7.60;99.90
17154;DHT22;8692;52.164;7.558;2024-01-27T12:17:08;7.60;99.90
17154;DHT22;8692;52.164;7.558;2024-01-27T12:19:36;7.60;99.90
17154;DHT22;8692;52.164;7.558;2024-01-27T12:22:05;7.70;99.90
17154;DHT22;8692;52.164;7.558;2024-01-27T12:24:47;7.70;99.90
17154;DHT22;8692;52.164;7.558;2024-01-27T12:27:17;7.70;99.90
17154;DHT22;8692;52.164;7.558;2024-01-27T12:29:47;7.80;99.90
17154;DHT22;8692;52.164;7.558;2024-01-27T12:32:15;7.80;99.90
17154;DHT22;8692;52.164;7.558;2024-01-27T12:34:43;7.80;99.90
17154;DHT22;8692;52.164;7.558;2024-01-27T12:37:15;7.80;99.90
17154;DHT22;8692;52.164;7.558;2024-01-27T12:39:43;7.90;99.90
17154;DHT22;8692;52.164;7.558;2024-01-27T12:42:12;7.80;99.90
17154;DHT22;8692;52.164;7.558;2024-01-27T12:44:41;7.80;99.90
17154;DHT22;8692;52.164;7.558;2024-01-27T12:47:09;7.90;99.90
17154;DHT22;8692;52.164;7.558;2024-01-27T12:49:37;7.80;99.90
17154;DHT22;8692;52.164;7.558;2024-01-27T12:52:06;7.80;99.90
17154;DHT22;8692;52.164;7.558;2024-01-27T12:54:34;7.80;99.90
17154;DHT22;8692;52.164;7.558;2024-01-27T12:57:02;7.80;99.90
17154;DHT22;8692;52.164;7.558;2024-01-27T12:59:30;7.80;99.90
17154;DHT22;8692;52.164;7.558;2024-01-27T13:02:00;7.80;99.90
17154;DHT22;8692;52.164;7.558;2024-01-27T13:04:28;7.80;99.90
17154;DHT22;8692;52.164;7.558;2024-01-27T13:06:56;7.90;99.90
17154;DHT22;8692;52.164;7.558;2024-01-27T13:09:24;7.90;99.90
17154;DHT22;8692;52.164;7.558;2024-01-27T13:11:52;8.00;99.90
17154;DHT22;8692;52.164;7.558;2024-01-27T13:14:20;8.00;99.90
17154;DHT22;8692;52.164;7.558;2024-01-27T13:16:49;8.00;99.90
17154;DHT22;8692;52.164;7.558;2024-01-27T13:19:21;8.00;99.90
17154;DHT22;8692;52.164;7.558;2024-01-27T13:21:49;8.00;99.90
17154;DHT22;8692;52.164;7.558;2024-01-27T13:24:17;8.00;99.90
17154;DHT22;8692;52.164;7.558;2024-01-27T13:26:47;8.00;99.90
17154;DHT22;8692;52.164;7.558;2024-01-27T13:29:15;8.00;99.90
17154;DHT22;8692;52.164;7.558;2024-01-27T13:31:43;7.90;99.90
17154;DHT22;8692;52.164;7.558;2024-01-27T13:34:11;7.90;99.90
17154;DHT22;8692;52.164;7.558;2024-01-27T13:36:41;7.90;99.90
17154;DHT22;8692;52.164;7.558;2024-01-27T13:39:09;7.90;99.90
17154;DHT22;8692;52.164;7.558;2024-01-27T13:41:37;7.90;99.90
17154;DHT22;8692;52.164;7.558;2024-01-27T13:44:05;7.90;99.90
17154;DHT22;8692;52.164;7.558;2024-01-27T13:46:33;7.90;99.90
17154;DHT22;8692;52.164;7.558;2024-01-27T13:49:01;7.90;99.90
17154;DHT22;8692;52.164;7.558;2024-01-27T13:51:29;8.00;99.90
17154;DHT22;8692;52.164;7.558;2024-01-27T13:53:59;8.00;99.90
17154;DHT22;8692;52.164;7.558;2024-01-27T13:56:27;7.90;99.90
17154;DHT22;8692;52.164;7.558;2024-01-27T13:58:59;7.90;99.90
17154;DHT22;8692;52.164;7.558;2024-01-27T14:01:27;7.90;99.90
17154;DHT22;8692;52.164;7.558;2024-01-27T14:03:55;7.90;99.90
17154;DHT22;8692;52.164;7.558;2024-01-27T14:06:23;7.90;99.90
17154;DHT22;8692;52.164;7.558;2024-01-27T14:08:51;8.00;99.90
17154;DHT22;8692;52.164;7.558;2024-01-27T14:11:22;8.00;99.90
17154;DHT22;8692;52.164;7.558;2024-01-27T14:13:50;8.00;99.90
17154;DHT22;8692;52.164;7.558;2024-01-27T14:16:18;8.00;99.90
17154;DHT22;8692;52.164;7.558;2024-01-27T14:18:47;8.00;99.90
17154;DHT22;8692;52.164;7.558;2024-01-27T14:21:16;8.10;99.90
17154;DHT22;8692;52.164;7.558;2024-01-27T14:23:44;8.10;99.90
17154;DHT22;8692;52.164;7.558;2024-01-27T14:26:12;8.10;99.90
17154;DHT22;8692;52.164;7.558;2024-01-27T14:28:43;8.10;99.90
17154;DHT22;8692;52.164;7.558;2024-01-27T14:31:12;8.20;99.90
17154;DHT22;8692;52.164;7.558;2024-01-27T14:33:42;8.10;99.90
17154;DHT22;8692;52.164;7.558;2024-01-27T14:36:10;8.10;99.90
17154;DHT22;8692;52.164;7.558;2024-01-27T14:38:38;8.10;99.90
17154;DHT22;8692;52.164;7.558;2024-01-27T14:41:07;8.10;99.90
17154;DHT22;8692;52.164;7.558;2024-01-27T14:43:35;8.00;99.90
17154;DHT22;8692;52.164;7.558;2024-01-27T14:46:06;8.00;99.90
17154;DHT22;8692;52.164;7.558;2024-01-27T14:48:34;8.00;99.90
17154;DHT22;8692;52.164;7.558;2024-01-27T14:51:03;7.90;99.90
17154;DHT22;8692;52.164;7.558;2024-01-27T14:53:33;7.90;99.90
17154;DHT22;8692;52.164;7.558;2024-01-27T14:56:01;7.80;99.90
17154;DHT22;8692;52.164;7.558;2024-01-27T14:58:29;7.80;99.90
17154;DHT22;8692;52.164;7.558;2024-01-27T15:00:57;7.70;99.90
17154;DHT22;8692;52.164;7.558;2024-01-27T15:03:27;7.70;99.90
17154;DHT22;8692;52.164;7.558;2024-01-27T15:05:55;7.60;99.90
17154;DHT22;8692;52.164;7.558;2024-01-27T15:08:26;7.50;99.90
17154;DHT22;8692;52.164;7.558;2024-01-27T15:10:54;7.50;99.90
17154;DHT22;8692;52.164;7.558;2024-01-27T15:13:22;7.40;99.90
17154;DHT22;8692;52.164;7.558;2024-01-27T15:15:51;7.40;99.90
17154;DHT22;8692;52.164;7.558;2024-01-27T15:18:19;7.30;99.90
17154;DHT22;8692;52.164;7.558;2024-01-27T15:20:50;7.20;99.90
17154;DHT22;8692;52.164;7.558;2024-01-27T15:23:18;7.20;99.90
17154;DHT22;8692;52.164;7.558;2024-01-27T15:25:51;7.10;99.90
17154;DHT22;8692;52.164;7.558;2024-01-27T15:28:19;7.00;99.90
17154;DHT22;8692;52.164;7.558;2024-01-27T15:30:47;7.00;99.90
17154;DHT22;8692;52.164;7.558;2024-01-27T15:33:16;6.90;99.90
17154;DHT22;8692;52.164;7.558;2024-01-27T15:35:44;6.90;99.90
17154;DHT22;8692;52.164;7.558;2024-01-27T15:38:13;6.80;99.90
17154;DHT22;8692;52.164;7.558;2024-01-27T15:40:41;6.80;99.90
17154;DHT22;8692;52.164;7.558;2024-01-27T15:43:10;6.70;99.90
17154;DHT22;8692;52.164;7.558;2024-01-27T15:45:38;6.70;99.90
17154;DHT22;8692;52.164;7.558;2024-01-27T15:48:06;6.70;99.90
17154;DHT22;8692;52.164;7.558;2024-01-27T15:50:37;6.60;99.90
17154;DHT22;8692;52.164;7.558;2024-01-27T15:53:05;6.60;99.90
17154;DHT22;8692;52.164;7.558;2024-01-27T15:55:36;6.50;99.90
17154;DHT22;8692;52.164;7.558;2024-01-27T15:58:04;6.50;99.90
17154;DHT22;8692;52.164;7.558;2024-01-27T16:00:32;6.40;99.90
17154;DHT22;8692;52.164;7.558;2024-01-27T16:03:00;6.30;99.90
17154;DHT22;8692;52.164;7.558;2024-01-27T16:05:28;6.30;99.90
17154;DHT22;8692;52.164;7.558;2024-01-27T16:07:56;6.20;99.90
17154;DHT22;8692;52.164;7.558;2024-01-27T16:10:24;6.10;99.90
17154;DHT22;8692;52.164;7.558;2024-01-27T16:12:53;6.10;99.90